createdAt,value
2023-05-20T00:00:38.922Z,2.43
2023-05-20T00:03:05.922Z,1.83
2023-05-20T00:05:32.899Z,2.60
2023-05-20T00:08:02.499Z,1.60
2023-05-20T00:10:29.448Z,1.90
2023-05-20T00:12:56.370Z,2.20
2023-05-20T00:15:23.308Z,1.90
2023-05-20T00:17:50.222Z,1.73
2023-05-20T00:20:17.456Z,1.80
2023-05-20T00:22:44.359Z,1.73
2023-05-20T00:25:14.030Z,1.80
2023-05-20T00:27:40.962Z,1.63
2023-05-20T00:30:09.674Z,1.80
2023-05-20T00:32:37.013Z,1.60
2023-05-20T00:35:04.618Z,1.40
2023-05-20T00:37:31.897Z,1.47
2023-05-20T00:39:58.803Z,1.60
2023-05-20T00:42:29.021Z,1.60
2023-05-20T00:44:56.418Z,1.50
2023-05-20T00:47:26.825Z,1.97
2023-05-20T00:49:53.880Z,1.60
2023-05-20T00:52:21.435Z,1.83
2023-05-20T00:54:50.009Z,1.40
2023-05-20T00:57:17.384Z,1.50
2023-05-20T00:59:47.086Z,1.53
2023-05-20T01:02:14.524Z,2.00
2023-05-20T01:04:41.565Z,1.70
2023-05-20T01:07:08.541Z,1.73
2023-05-20T01:09:35.463Z,1.63
2023-05-20T01:12:09.961Z,1.50
2023-05-20T01:14:43.845Z,1.97
2023-05-20T01:17:15.468Z,2.30
2023-05-20T01:19:43.158Z,2.00
2023-05-20T01:22:11.319Z,1.50
2023-05-20T01:24:41.398Z,1.70
2023-05-20T01:27:09.879Z,1.40
2023-05-20T01:29:37.450Z,1.43
2023-05-20T01:32:07.881Z,1.60
2023-05-20T01:34:36.103Z,2.97
2023-05-20T01:37:04.656Z,2.17
2023-05-20T01:39:33.794Z,1.57
2023-05-20T01:42:05.082Z,1.60
2023-05-20T01:44:32.782Z,1.90
2023-05-20T01:47:00.376Z,1.67
2023-05-20T01:49:27.743Z,2.00
2023-05-20T01:51:54.964Z,1.57
2023-05-20T01:54:22.298Z,1.90
2023-05-20T01:56:50.135Z,2.23
2023-05-20T01:59:19.670Z,1.97
2023-05-20T02:01:46.680Z,1.47
2023-05-20T02:04:13.703Z,1.83
2023-05-20T02:06:40.600Z,1.60
2023-05-20T02:09:07.667Z,2.80
2023-05-20T02:11:34.571Z,1.40
2023-05-20T02:14:01.514Z,1.70
2023-05-20T02:16:31.097Z,1.30
2023-05-20T02:18:58.140Z,1.70
2023-05-20T02:21:25.168Z,1.47
2023-05-20T02:23:52.305Z,2.13
2023-05-20T02:26:19.236Z,1.70
2023-05-20T02:28:46.348Z,1.50
2023-05-20T02:31:13.321Z,2.57
2023-05-20T02:33:42.851Z,1.70
2023-05-20T02:36:09.786Z,1.70
2023-05-20T02:38:36.690Z,1.60
2023-05-20T02:41:03.652Z,1.80
2023-05-20T02:43:30.781Z,1.73
2023-05-20T02:45:57.751Z,2.47
2023-05-20T02:48:24.788Z,1.50
2023-05-20T02:50:54.325Z,1.37
2023-05-20T02:53:21.298Z,1.60
2023-05-20T02:55:48.453Z,1.57
2023-05-20T02:58:15.446Z,2.30
2023-05-20T03:00:42.383Z,1.40
2023-05-20T03:03:10.372Z,1.80
2023-05-20T03:05:37.587Z,1.63
2023-05-20T03:08:08.864Z,1.33
2023-05-20T03:10:35.815Z,1.60
2023-05-20T03:13:02.912Z,1.50
2023-05-20T03:15:29.858Z,3.10
2023-05-20T03:17:56.810Z,3.13
2023-05-20T03:20:24.342Z,1.70
2023-05-20T03:22:51.235Z,1.50
2023-05-20T03:25:22.474Z,1.80
2023-05-20T03:27:49.382Z,1.60
2023-05-20T03:30:16.346Z,1.50
2023-05-20T03:32:43.275Z,2.00
2023-05-20T03:35:10.378Z,2.40
2023-05-20T03:37:37.516Z,2.10
2023-05-20T03:40:05.757Z,1.90
2023-05-20T03:42:35.318Z,1.97
2023-05-20T03:45:02.270Z,1.57
2023-05-20T03:47:29.524Z,1.53
2023-05-20T03:49:57.049Z,1.70
2023-05-20T03:52:24.096Z,1.60
2023-05-20T03:54:51.021Z,2.27
2023-05-20T03:57:17.916Z,2.40
2023-05-20T03:59:47.443Z,2.43
2023-05-20T04:02:14.491Z,2.00
2023-05-20T04:04:41.424Z,1.80
2023-05-20T04:07:08.355Z,3.73
2023-05-20T04:09:35.308Z,1.80
2023-05-20T04:12:02.200Z,2.00
2023-05-20T04:14:29.150Z,1.67
2023-05-20T04:16:58.648Z,2.10
2023-05-20T04:19:25.643Z,2.00
2023-05-20T04:21:52.598Z,1.57
2023-05-20T04:24:19.563Z,2.87
2023-05-20T04:26:46.492Z,1.73
2023-05-20T04:29:13.401Z,1.87
2023-05-20T04:31:40.355Z,2.07
2023-05-20T04:34:09.895Z,1.70
2023-05-20T04:36:36.822Z,1.63
2023-05-20T04:39:03.915Z,2.47
2023-05-20T04:41:31.000Z,2.70
2023-05-20T04:43:57.928Z,1.80
2023-05-20T04:46:24.892Z,2.23
2023-05-20T04:48:51.831Z,1.60
2023-05-20T04:51:21.398Z,2.10
2023-05-20T04:53:48.331Z,2.07
2023-05-20T04:56:15.300Z,1.90
2023-05-20T04:58:42.207Z,1.93
2023-05-20T05:01:09.236Z,1.83
2023-05-20T05:03:36.892Z,1.70
2023-05-20T05:06:04.031Z,1.70
2023-05-20T05:08:33.582Z,2.50
2023-05-20T05:11:00.519Z,1.90
2023-05-20T05:13:27.529Z,2.07
2023-05-20T05:16:01.048Z,2.60
2023-05-20T05:18:28.330Z,2.13
2023-05-20T05:21:01.988Z,2.20
2023-05-20T05:23:29.028Z,2.47
2023-05-20T05:25:58.789Z,2.10
2023-05-20T05:28:25.864Z,2.27
2023-05-20T05:30:55.026Z,1.90
2023-05-20T05:33:22.143Z,1.90
2023-05-20T05:35:50.095Z,2.10
2023-05-20T05:38:17.164Z,1.90
2023-05-20T05:40:44.055Z,1.87
2023-05-20T05:43:13.578Z,2.03
2023-05-20T05:45:40.492Z,2.37
2023-05-20T05:48:07.520Z,2.17
2023-05-20T05:50:34.451Z,2.53
2023-05-20T05:53:01.410Z,1.80
2023-05-20T05:55:28.877Z,1.97
2023-05-20T05:57:55.805Z,2.47
2023-05-20T06:00:25.356Z,3.07
2023-05-20T06:02:52.340Z,1.67
2023-05-20T06:05:19.531Z,1.87
2023-05-20T06:07:46.481Z,2.10
2023-05-20T06:10:13.749Z,2.00
2023-05-20T06:12:40.713Z,2.33
2023-05-20T06:15:09.088Z,2.33
2023-05-20T06:17:38.645Z,1.90
2023-05-20T06:20:07.354Z,2.00
2023-05-20T06:22:34.297Z,2.10
2023-05-20T06:25:01.186Z,2.23
2023-05-20T06:27:28.506Z,2.20
2023-05-20T06:29:55.532Z,1.70
2023-05-20T06:32:22.461Z,1.80
2023-05-20T06:34:52.086Z,2.07
2023-05-20T06:37:19.069Z,2.63
2023-05-20T06:39:46.206Z,2.23
2023-05-20T06:42:13.167Z,2.40
2023-05-20T06:44:40.162Z,1.87
2023-05-20T06:47:07.066Z,2.40
2023-05-20T06:49:33.993Z,2.20
2023-05-20T06:52:03.772Z,1.97
2023-05-20T06:54:30.723Z,2.40
2023-05-20T06:56:57.697Z,2.80
2023-05-20T06:59:24.694Z,2.40
2023-05-20T07:01:51.670Z,2.30
2023-05-20T07:04:18.730Z,5.67
2023-05-20T07:06:45.721Z,4.47
2023-05-20T07:09:15.274Z,2.70
2023-05-20T07:11:42.200Z,2.30
2023-05-20T07:14:09.124Z,2.07
2023-05-20T07:16:36.178Z,2.30
2023-05-20T07:19:03.456Z,2.73
2023-05-20T07:21:30.479Z,2.57
2023-05-20T07:23:57.529Z,2.47
2023-05-20T07:26:27.170Z,2.50
2023-05-20T07:28:54.101Z,2.80
2023-05-20T07:31:21.113Z,3.40
2023-05-20T07:33:48.039Z,5.93
2023-05-20T07:36:14.981Z,3.10
2023-05-20T07:38:47.225Z,2.70
2023-05-20T07:41:26.263Z,6.13
2023-05-20T07:43:53.233Z,4.00
2023-05-20T07:46:20.363Z,4.93
2023-05-20T07:48:47.492Z,3.30
2023-05-20T07:51:14.443Z,2.70
2023-05-20T07:53:41.409Z,2.97
2023-05-20T07:56:08.366Z,4.77
2023-05-20T07:58:37.914Z,3.30
2023-05-20T08:01:04.976Z,2.63
2023-05-20T08:03:31.972Z,2.97
2023-05-20T08:05:59.057Z,2.80
2023-05-20T08:08:26.190Z,2.90
2023-05-20T08:10:53.162Z,3.10
2023-05-20T08:13:20.079Z,2.70
2023-05-20T08:15:49.665Z,3.90
2023-05-20T08:18:16.620Z,6.80
2023-05-20T08:20:43.505Z,6.60
2023-05-20T08:23:10.473Z,3.37
2023-05-20T08:25:37.418Z,4.70
2023-05-20T08:28:04.785Z,3.63
2023-05-20T08:30:31.755Z,2.80
2023-05-20T08:33:01.350Z,3.27
2023-05-20T08:35:28.402Z,2.93
2023-05-20T08:37:55.387Z,4.37
2023-05-20T08:40:22.730Z,5.23
2023-05-20T08:42:51.589Z,3.43
2023-05-20T08:45:20.184Z,3.37
2023-05-20T08:47:47.462Z,3.30
2023-05-20T08:50:17.084Z,3.43
2023-05-20T08:52:46.962Z,3.10
2023-05-20T08:55:17.761Z,4.60
2023-05-20T08:57:44.848Z,2.77
2023-05-20T09:00:14.084Z,2.83
2023-05-20T09:02:41.036Z,3.33
2023-05-20T09:05:11.166Z,3.37
2023-05-20T09:07:40.948Z,2.80
2023-05-20T09:10:08.821Z,4.33
2023-05-20T09:12:36.479Z,2.87
2023-05-20T09:15:03.659Z,2.90
2023-05-20T09:17:30.716Z,3.50
2023-05-20T09:19:57.739Z,3.30
2023-05-20T09:22:25.039Z,3.03
2023-05-20T09:24:55.121Z,3.33
2023-05-20T09:27:22.365Z,3.10
2023-05-20T09:29:49.291Z,3.40
2023-05-20T09:32:17.425Z,3.40
2023-05-20T09:34:46.397Z,3.23
2023-05-20T09:37:16.613Z,3.10
2023-05-20T09:39:49.190Z,3.20
2023-05-20T09:42:23.075Z,3.20
2023-05-20T09:44:51.203Z,3.00
2023-05-20T09:47:18.580Z,4.80
2023-05-20T09:49:46.466Z,3.00
2023-05-20T09:52:15.101Z,3.63
2023-05-20T09:54:44.368Z,3.90
2023-05-20T09:57:12.492Z,3.57
2023-05-20T09:59:42.707Z,3.40
2023-05-20T10:02:09.809Z,3.33
2023-05-20T10:04:41.423Z,3.30
2023-05-20T10:07:44.409Z,3.43
2023-05-20T10:10:25.721Z,2.80
2023-05-20T10:13:00.226Z,3.37
2023-05-20T10:15:39.374Z,2.93
2023-05-20T10:18:16.393Z,3.10
2023-05-20T10:20:46.871Z,2.87
2023-05-20T10:23:21.738Z,3.00
2023-05-20T10:25:51.528Z,5.20
2023-05-20T10:28:28.761Z,3.37
2023-05-20T10:30:58.716Z,3.43
2023-05-20T10:33:26.765Z,3.53
2023-05-20T10:35:54.569Z,5.50
2023-05-20T10:38:21.739Z,3.57
2023-05-20T10:40:48.724Z,3.43
2023-05-20T10:43:17.315Z,3.43
2023-05-20T10:45:51.630Z,3.30
2023-05-20T10:48:25.354Z,4.10
2023-05-20T10:50:55.642Z,3.50
2023-05-20T10:55:54.259Z,3.50
2023-05-20T10:58:22.517Z,3.20
2023-05-20T11:00:50.893Z,3.40
2023-05-20T11:03:21.751Z,5.30
2023-05-20T11:05:51.913Z,3.30
2023-05-20T11:08:27.925Z,3.10
2023-05-20T11:10:57.284Z,3.50
2023-05-20T11:13:25.085Z,3.40
2023-05-20T11:15:52.262Z,3.07
2023-05-20T11:18:19.324Z,3.67
2023-05-20T11:20:47.133Z,3.17
2023-05-20T11:23:16.804Z,3.53
2023-05-20T11:25:46.522Z,3.13
2023-05-20T11:28:13.998Z,3.40
2023-05-20T11:30:42.624Z,3.20
2023-05-20T11:33:12.939Z,3.30
2023-05-20T11:35:45.714Z,3.10
2023-05-20T11:38:12.855Z,3.60
2023-05-20T11:40:50.600Z,3.03
2023-05-20T11:43:19.456Z,3.07
2023-05-20T11:45:48.733Z,3.47
2023-05-20T11:48:15.845Z,3.80
2023-05-20T11:50:44.251Z,3.13
2023-05-20T11:53:15.595Z,3.60
2023-05-20T11:55:49.693Z,3.50
2023-05-20T11:58:17.506Z,3.43
2023-05-20T12:03:16.809Z,3.50
2023-05-20T12:05:44.170Z,3.50
2023-05-20T12:08:11.163Z,3.20
2023-05-20T12:10:38.138Z,3.57
2023-05-20T12:13:08.063Z,3.60
2023-05-20T12:15:35.197Z,3.70
2023-05-20T12:18:02.354Z,3.57
2023-05-20T12:20:30.633Z,3.50
2023-05-20T12:22:57.783Z,3.37
2023-05-20T12:25:24.707Z,3.30
2023-05-20T12:27:51.832Z,3.23
2023-05-20T12:30:22.447Z,3.63
2023-05-20T12:32:50.548Z,3.20
2023-05-20T12:35:18.138Z,3.60
2023-05-20T12:37:45.301Z,3.83
2023-05-20T12:40:12.955Z,3.00
2023-05-20T12:42:41.157Z,3.13
2023-05-20T12:45:09.397Z,3.50
2023-05-20T12:47:39.157Z,3.30
2023-05-20T12:50:07.007Z,3.40
2023-05-20T12:52:35.288Z,4.37
2023-05-20T12:55:02.365Z,3.83
2023-05-20T12:57:29.441Z,3.50
2023-05-20T12:59:56.430Z,3.87
2023-05-20T13:02:26.288Z,3.93
2023-05-20T13:04:55.975Z,3.73
2023-05-20T13:07:22.905Z,3.60
2023-05-20T13:09:49.890Z,3.80
2023-05-20T13:12:16.857Z,3.27
2023-05-20T13:14:43.822Z,4.20
2023-05-20T13:17:11.876Z,4.00
2023-05-20T13:19:38.974Z,4.00
2023-05-20T13:22:08.601Z,3.90
2023-05-20T13:24:35.623Z,3.53
2023-05-20T13:27:02.615Z,3.47
2023-05-20T13:29:29.612Z,4.90
2023-05-20T13:31:56.648Z,4.00
2023-05-20T13:34:23.909Z,4.00
2023-05-20T13:36:50.975Z,3.83
2023-05-20T13:39:20.532Z,3.77
2023-05-20T13:41:47.488Z,4.70
2023-05-20T13:44:14.673Z,3.70
2023-05-20T13:46:41.752Z,3.50
2023-05-20T13:49:08.729Z,3.80
2023-05-20T13:51:35.705Z,4.33
2023-05-20T13:54:02.732Z,4.87
2023-05-20T13:56:32.519Z,4.63
2023-05-20T13:58:59.452Z,4.10
2023-05-20T14:01:26.396Z,4.13
2023-05-20T14:03:53.432Z,4.27
2023-05-20T14:06:20.424Z,4.10
2023-05-20T14:08:47.650Z,3.80
2023-05-20T14:11:14.559Z,3.80
2023-05-20T14:13:44.104Z,4.33
2023-05-20T14:16:11.242Z,4.47
2023-05-20T14:18:38.245Z,5.43
2023-05-20T14:21:05.652Z,5.57
2023-05-20T14:23:32.595Z,4.43
2023-05-20T14:25:59.693Z,4.60
2023-05-20T14:28:26.620Z,4.57
2023-05-20T14:30:56.114Z,4.80
2023-05-20T14:33:23.062Z,4.60
2023-05-20T14:35:49.985Z,4.37
2023-05-20T14:38:16.974Z,4.67
2023-05-20T14:40:44.303Z,3.90
2023-05-20T14:43:11.264Z,4.33
2023-05-20T14:45:38.215Z,4.43
2023-05-20T14:48:08.058Z,4.70
2023-05-20T14:50:35.154Z,4.57
2023-05-20T14:53:02.308Z,5.30
2023-05-20T14:55:29.372Z,4.60
2023-05-20T14:57:56.444Z,4.30
2023-05-20T15:00:23.358Z,4.17
2023-05-20T15:02:50.451Z,4.23
2023-05-20T15:05:20.093Z,4.67
2023-05-20T15:07:47.135Z,4.00
2023-05-20T15:10:14.098Z,4.57
2023-05-20T15:12:41.033Z,4.20
2023-05-20T15:15:09.756Z,4.10
2023-05-20T15:17:37.032Z,3.43
2023-05-20T15:20:04.989Z,4.17
2023-05-20T15:22:34.519Z,4.47
2023-05-20T15:25:01.454Z,4.80
2023-05-20T15:27:28.413Z,4.03
2023-05-20T15:29:55.377Z,4.37
2023-05-20T15:32:22.501Z,3.80
2023-05-20T15:34:49.589Z,4.60
2023-05-20T15:37:16.584Z,3.90
2023-05-20T15:39:46.175Z,6.13
2023-05-20T15:42:13.118Z,4.90
2023-05-20T15:44:40.270Z,4.10
2023-05-20T15:47:07.200Z,6.63
2023-05-20T15:49:34.115Z,4.70
2023-05-20T15:52:03.965Z,4.30
2023-05-20T15:54:31.562Z,4.67
2023-05-20T15:57:01.242Z,4.80
2023-05-20T15:59:28.276Z,4.53
2023-05-20T16:01:55.413Z,4.83
2023-05-20T16:04:22.592Z,4.30
2023-05-20T16:06:49.750Z,4.03
2023-05-20T16:09:16.675Z,4.23
2023-05-20T16:11:43.629Z,3.87
2023-05-20T16:14:13.244Z,4.97
2023-05-20T16:16:40.301Z,5.57
2023-05-20T16:19:07.343Z,6.43
2023-05-20T16:21:34.381Z,4.77
2023-05-20T16:24:01.373Z,4.23
2023-05-20T16:26:29.168Z,4.77
2023-05-20T16:28:56.116Z,4.23
2023-05-20T16:31:25.760Z,4.30
2023-05-20T16:33:52.777Z,4.03
2023-05-20T16:36:19.728Z,4.47
2023-05-20T16:38:46.731Z,5.03
2023-05-20T16:41:15.943Z,4.73
2023-05-20T16:43:43.199Z,4.23
2023-05-20T16:46:10.372Z,5.20
2023-05-20T16:48:40.010Z,4.87
2023-05-20T16:51:07.005Z,4.70
2023-05-20T16:53:33.964Z,5.10
2023-05-20T16:56:00.976Z,5.27
2023-05-20T16:58:27.951Z,5.33
2023-05-20T17:00:55.104Z,5.20
2023-05-20T17:03:22.376Z,4.70
2023-05-20T17:05:51.968Z,5.07
2023-05-20T17:08:18.954Z,5.37
2023-05-20T17:10:45.875Z,5.20
2023-05-20T17:13:12.896Z,5.10
2023-05-20T17:15:39.840Z,5.30
2023-05-20T17:18:06.955Z,5.00
2023-05-20T17:20:34.134Z,5.43
2023-05-20T17:23:03.818Z,5.23
2023-05-20T17:25:30.811Z,5.20
2023-05-20T17:27:57.817Z,5.40
2023-05-20T17:30:24.792Z,5.00
2023-05-20T17:32:53.916Z,5.03
2023-05-20T17:35:21.195Z,4.83
2023-05-20T17:37:48.157Z,5.60
2023-05-20T17:40:18.455Z,5.00
2023-05-20T17:42:45.387Z,5.93
2023-05-20T17:45:12.307Z,5.80
2023-05-20T17:47:39.299Z,6.70
2023-05-20T17:50:08.007Z,6.20
2023-05-20T17:52:34.928Z,5.90
2023-05-20T17:55:01.898Z,6.73
2023-05-20T17:57:31.452Z,5.33
2023-05-20T17:59:58.405Z,5.77
2023-05-20T18:02:25.592Z,5.83
2023-05-20T18:04:52.631Z,5.83
2023-05-20T18:07:19.673Z,6.07
2023-05-20T18:09:46.589Z,5.83
2023-05-20T18:12:13.558Z,6.27
2023-05-20T18:14:43.092Z,6.30
2023-05-20T18:17:10.098Z,6.87
2023-05-20T18:19:37.035Z,6.67
2023-05-20T18:22:04.222Z,5.77
2023-05-20T18:24:31.109Z,6.80
2023-05-20T18:26:58.086Z,6.70
2023-05-20T18:29:25.015Z,6.67
2023-05-20T18:31:54.607Z,6.23
2023-05-20T18:34:21.599Z,6.20
2023-05-20T18:36:48.832Z,6.37
2023-05-20T18:39:15.894Z,6.50
2023-05-20T18:41:47.245Z,6.87
2023-05-20T18:44:14.687Z,7.00
2023-05-20T18:46:41.785Z,7.50
2023-05-20T18:49:11.295Z,6.80
2023-05-20T18:51:38.511Z,7.40
2023-05-20T18:54:05.549Z,7.63
2023-05-20T18:56:32.623Z,6.97
2023-05-20T18:58:59.762Z,7.03
2023-05-20T19:01:26.932Z,6.37
2023-05-20T19:03:53.947Z,7.40
2023-05-20T19:06:23.572Z,7.53
2023-05-20T19:08:50.581Z,7.23
2023-05-20T19:11:17.536Z,7.17
2023-05-20T19:13:44.540Z,6.87
2023-05-20T19:16:11.508Z,6.70
2023-05-20T19:18:38.652Z,7.47
2023-05-20T19:21:05.650Z,7.03
2023-05-20T19:23:35.268Z,7.23
2023-05-20T19:26:02.262Z,7.07
2023-05-20T19:28:29.285Z,7.37
2023-05-20T19:30:56.292Z,7.60
2023-05-20T19:33:23.308Z,7.60
2023-05-20T19:35:50.327Z,7.80
2023-05-20T19:38:17.357Z,7.70
2023-05-20T19:40:47.056Z,7.40
2023-05-20T19:43:14.066Z,7.10
2023-05-20T19:45:40.993Z,8.43
2023-05-20T19:48:08.045Z,8.00
2023-05-20T19:50:35.177Z,7.47
2023-05-20T19:53:02.132Z,7.77
2023-05-20T19:55:29.408Z,8.13
2023-05-20T19:57:58.955Z,7.20
2023-05-20T20:00:25.974Z,7.87
2023-05-20T20:02:53.024Z,7.10
2023-05-20T20:05:21.586Z,7.30
2023-05-20T20:07:50.592Z,8.27
2023-05-20T20:10:17.559Z,7.63
2023-05-20T20:12:44.472Z,7.43
2023-05-20T20:15:14.149Z,7.73
2023-05-20T20:17:41.184Z,7.60
2023-05-20T20:20:09.188Z,7.73
2023-05-20T20:22:36.136Z,7.67
2023-05-20T20:25:03.117Z,8.23
2023-05-20T20:27:30.031Z,7.33
2023-05-20T20:29:57.004Z,6.93
2023-05-20T20:32:26.606Z,8.10
2023-05-20T20:34:53.660Z,7.30
2023-05-20T20:37:20.657Z,7.70
2023-05-20T20:39:47.615Z,7.80
2023-05-20T20:42:14.523Z,7.30
2023-05-20T20:44:41.485Z,7.60
2023-05-20T20:47:08.533Z,8.20
2023-05-20T20:49:38.123Z,7.83
2023-05-20T20:52:05.750Z,8.20
2023-05-20T20:54:32.705Z,7.60
2023-05-20T20:56:59.688Z,7.63
2023-05-20T20:59:26.789Z,7.37
2023-05-20T21:01:53.844Z,8.33
2023-05-20T21:04:20.837Z,7.07
2023-05-20T21:06:50.558Z,7.73
2023-05-20T21:09:17.582Z,7.83
2023-05-20T21:11:44.557Z,8.20
2023-05-20T21:14:13.034Z,7.77
2023-05-20T21:16:40.115Z,7.13
2023-05-20T21:19:07.139Z,8.17
2023-05-20T21:21:34.179Z,8.13
2023-05-20T21:24:04.003Z,7.00
2023-05-20T21:26:30.973Z,7.80
2023-05-20T21:28:57.965Z,7.93
2023-05-20T21:31:24.974Z,8.00
2023-05-20T21:33:52.035Z,8.10
2023-05-20T21:36:18.987Z,7.83
2023-05-20T21:38:45.913Z,8.00
2023-05-20T21:41:16.621Z,8.07
2023-05-20T21:43:43.774Z,8.93
2023-05-20T21:46:10.910Z,7.90
2023-05-20T21:48:37.901Z,7.53
2023-05-20T21:51:04.911Z,8.40
2023-05-20T21:53:31.848Z,8.70
2023-05-20T21:55:58.932Z,8.83
2023-05-20T21:58:28.484Z,8.30
2023-05-20T22:00:55.399Z,8.30
2023-05-20T22:03:22.481Z,7.80
2023-05-20T22:05:49.518Z,8.03
2023-05-20T22:08:16.496Z,8.90
2023-05-20T22:10:43.483Z,8.13
2023-05-20T22:13:10.484Z,7.97
2023-05-20T22:15:40.068Z,7.87
2023-05-20T22:18:07.902Z,7.37
2023-05-20T22:20:35.003Z,8.67
2023-05-20T22:23:01.980Z,7.57
2023-05-20T22:25:28.966Z,8.37
2023-05-20T22:27:55.968Z,8.07
2023-05-20T22:30:23.015Z,7.93
2023-05-20T22:32:52.552Z,8.57
2023-05-20T22:35:19.503Z,8.40
2023-05-20T22:37:46.452Z,7.83
2023-05-20T22:40:13.393Z,8.73
2023-05-20T22:42:40.295Z,8.53
2023-05-20T22:45:08.431Z,8.30
2023-05-20T22:47:35.451Z,7.30
2023-05-20T22:50:06.342Z,8.00
2023-05-20T22:52:33.299Z,8.37
2023-05-20T22:55:00.324Z,8.20
2023-05-20T22:57:27.214Z,7.93
2023-05-20T22:59:54.143Z,8.63
2023-05-20T23:02:21.236Z,8.33
2023-05-20T23:04:48.325Z,8.43
2023-05-20T23:07:18.030Z,7.70
2023-05-20T23:09:45.101Z,8.23
2023-05-20T23:12:12.154Z,9.10
2023-05-20T23:14:39.098Z,8.63
2023-05-20T23:17:06.444Z,8.83
2023-05-20T23:19:33.507Z,8.77
2023-05-20T23:22:00.508Z,8.70
2023-05-20T23:24:30.066Z,8.80
2023-05-20T23:26:56.996Z,8.70
2023-05-20T23:29:23.908Z,7.70
2023-05-20T23:31:51.186Z,9.00
2023-05-20T23:34:18.277Z,8.97
2023-05-20T23:36:45.270Z,8.43
2023-05-20T23:39:12.196Z,8.30
2023-05-20T23:41:41.812Z,8.17
2023-05-20T23:44:08.765Z,8.73
2023-05-20T23:46:35.883Z,9.10
2023-05-20T23:49:02.914Z,8.47
2023-05-20T23:51:29.877Z,8.63
2023-05-20T23:53:56.871Z,9.03
2023-05-20T23:56:23.825Z,8.40
2023-05-20T23:58:53.409Z,9.47
